createdAt,value
2017-09-07T00:00:05.089Z,14.50
2017-09-07T00:02:33.555Z,14.50
2017-09-07T00:05:01.766Z,14.40
2017-09-07T00:07:30.749Z,14.30
2017-09-07T00:09:58.919Z,14.30
2017-09-07T00:12:27.054Z,14.40
2017-09-07T00:14:55.188Z,14.40
2017-09-07T00:17:23.339Z,14.40
2017-09-07T00:19:51.455Z,14.40
2017-09-07T00:22:19.599Z,14.40
2017-09-07T00:24:47.782Z,14.50
2017-09-07T00:27:16.751Z,14.50
2017-09-07T00:29:44.914Z,14.40
2017-09-07T00:32:13.849Z,14.40
2017-09-07T00:34:42.165Z,14.30
2017-09-07T00:37:10.397Z,14.30
2017-09-07T00:39:38.569Z,14.40
2017-09-07T00:42:06.708Z,14.40
2017-09-07T00:44:34.818Z,14.50
2017-09-07T00:47:02.953Z,14.60
2017-09-07T00:49:31.847Z,14.80
2017-09-07T00:52:00.088Z,14.70
2017-09-07T00:54:28.226Z,14.80
2017-09-07T00:56:56.626Z,14.90
2017-09-07T00:59:24.825Z,14.90
2017-09-07T01:01:52.972Z,14.90
2017-09-07T01:04:21.873Z,15.00
2017-09-07T01:06:50.090Z,15.00
2017-09-07T01:09:19.060Z,14.90
2017-09-07T01:11:47.234Z,14.90
2017-09-07T01:14:15.481Z,14.90
2017-09-07T01:16:43.680Z,14.90
2017-09-07T01:19:11.842Z,14.80
2017-09-07T01:21:39.974Z,14.80
2017-09-07T01:24:08.123Z,14.80
2017-09-07T01:26:36.289Z,14.80
2017-09-07T01:29:04.436Z,14.90
2017-09-07T01:31:32.608Z,14.90
2017-09-07T01:34:00.785Z,14.90
2017-09-07T01:36:28.988Z,14.90
2017-09-07T01:38:57.104Z,14.90
2017-09-07T01:41:25.984Z,14.90
2017-09-07T01:43:54.112Z,14.80
2017-09-07T01:46:22.231Z,15.00
2017-09-07T01:48:50.380Z,14.90
2017-09-07T01:51:18.534Z,14.90
2017-09-07T01:53:46.704Z,15.00
2017-09-07T01:56:15.602Z,14.90
2017-09-07T01:58:43.716Z,14.90
2017-09-07T02:01:11.918Z,14.90
2017-09-07T02:03:40.230Z,14.90
2017-09-07T02:06:09.423Z,14.90
2017-09-07T02:08:37.610Z,14.80
2017-09-07T02:11:05.883Z,14.90
2017-09-07T02:13:34.762Z,14.80
2017-09-07T02:16:02.908Z,14.80
2017-09-07T02:18:31.827Z,14.80
2017-09-07T02:21:00.135Z,14.80
2017-09-07T02:23:28.275Z,14.80
2017-09-07T02:25:56.423Z,14.80
2017-09-07T02:28:25.336Z,14.80
2017-09-07T02:30:53.494Z,14.80
2017-09-07T02:33:22.405Z,14.80
2017-09-07T02:35:50.550Z,14.70
2017-09-07T02:38:19.523Z,14.80
2017-09-07T02:40:47.671Z,14.70
2017-09-07T02:43:15.890Z,14.70
2017-09-07T02:45:44.796Z,14.60
2017-09-07T02:48:12.923Z,14.60
2017-09-07T02:50:41.795Z,14.70
2017-09-07T02:53:09.987Z,14.60
2017-09-07T02:55:38.115Z,14.70
2017-09-07T02:58:06.258Z,14.70
2017-09-07T03:00:34.396Z,14.70
2017-09-07T03:03:02.559Z,14.70
2017-09-07T03:05:30.686Z,14.70
2017-09-07T03:07:58.961Z,14.60
2017-09-07T03:10:27.097Z,14.60
2017-09-07T03:12:55.237Z,14.60
2017-09-07T03:15:23.394Z,14.60
2017-09-07T03:17:51.553Z,14.60
2017-09-07T03:20:20.436Z,14.50
2017-09-07T03:22:48.575Z,14.40
2017-09-07T03:25:16.689Z,14.50
2017-09-07T03:27:44.823Z,14.40
2017-09-07T03:30:12.944Z,14.40
2017-09-07T03:32:41.974Z,14.30
2017-09-07T03:35:10.095Z,14.30
2017-09-07T03:37:38.974Z,14.20
2017-09-07T03:40:07.124Z,14.10
2017-09-07T03:42:35.240Z,14.20
2017-09-07T03:45:04.018Z,14.10
2017-09-07T03:47:32.295Z,14.20
2017-09-07T03:50:00.463Z,14.10
2017-09-07T03:52:28.638Z,14.10
2017-09-07T03:54:56.732Z,14.10
2017-09-07T03:57:25.814Z,14.20
2017-09-07T03:59:53.957Z,14.20
2017-09-07T04:02:22.116Z,14.20
2017-09-07T04:04:51.181Z,14.10
2017-09-07T04:07:19.437Z,14.10
2017-09-07T04:09:48.388Z,14.10
2017-09-07T04:12:16.514Z,14.00
2017-09-07T04:14:44.620Z,14.00
2017-09-07T04:17:12.761Z,14.10
2017-09-07T04:19:41.696Z,14.10
2017-09-07T04:22:09.850Z,14.00
2017-09-07T04:24:38.098Z,14.00
2017-09-07T04:27:06.969Z,14.00
2017-09-07T04:29:35.879Z,14.00
2017-09-07T04:32:05.640Z,13.90
2017-09-07T04:34:33.809Z,14.00
2017-09-07T04:37:01.955Z,14.00
2017-09-07T04:39:30.729Z,14.00
2017-09-07T04:41:58.883Z,14.00
2017-09-07T04:44:27.039Z,14.00
2017-09-07T04:46:55.174Z,14.00
2017-09-07T04:49:23.306Z,14.00
2017-09-07T04:51:51.555Z,14.00
2017-09-07T04:54:19.684Z,14.00
2017-09-07T04:56:48.575Z,14.00
2017-09-07T04:59:16.758Z,14.10
2017-09-07T05:01:44.948Z,14.10
2017-09-07T05:04:13.075Z,14.10
2017-09-07T05:06:41.561Z,14.10
2017-09-07T05:09:10.930Z,14.10
2017-09-07T05:11:39.124Z,14.10
2017-09-07T05:14:07.303Z,14.20
2017-09-07T05:16:35.611Z,14.20
2017-09-07T05:19:04.565Z,14.20
2017-09-07T05:21:33.456Z,14.30
2017-09-07T05:24:01.735Z,14.20
2017-09-07T05:29:04.524Z,14.30
2017-09-07T05:31:32.683Z,14.20
2017-09-07T05:34:00.929Z,14.20
2017-09-07T05:36:29.097Z,14.20
2017-09-07T05:38:57.273Z,14.30
2017-09-07T05:41:25.438Z,14.30
2017-09-07T05:43:53.686Z,14.30
2017-09-07T05:46:21.788Z,14.40
2017-09-07T05:48:50.005Z,14.40
2017-09-07T05:51:18.149Z,14.40
2017-09-07T05:53:46.360Z,14.40
2017-09-07T05:56:14.495Z,14.40
2017-09-07T05:58:42.631Z,14.40
2017-09-07T06:01:10.743Z,14.40
2017-09-07T06:03:38.860Z,14.50
2017-09-07T06:06:06.987Z,14.50
2017-09-07T06:08:35.117Z,14.50
2017-09-07T06:11:03.634Z,14.50
2017-09-07T06:13:31.854Z,14.60
2017-09-07T06:16:00.004Z,14.60
2017-09-07T06:18:28.231Z,14.60
2017-09-07T06:20:57.314Z,14.60
2017-09-07T06:23:25.554Z,14.60
2017-09-07T06:25:53.861Z,14.60
2017-09-07T06:28:22.754Z,14.70
2017-09-07T06:30:50.961Z,14.70
2017-09-07T06:33:19.601Z,14.80
2017-09-07T06:35:48.830Z,14.70
2017-09-07T06:38:17.701Z,14.70
2017-09-07T06:40:45.905Z,14.70
2017-09-07T06:43:14.008Z,14.70
2017-09-07T06:45:42.393Z,14.60
2017-09-07T06:48:11.217Z,14.60
2017-09-07T06:50:39.355Z,14.50
2017-09-07T06:53:07.571Z,14.50
2017-09-07T06:55:36.310Z,14.50
2017-09-07T06:58:05.222Z,14.50
2017-09-07T07:00:33.400Z,14.40
2017-09-07T07:03:02.034Z,14.50
2017-09-07T07:05:30.260Z,14.50
2017-09-07T07:07:59.250Z,14.60
2017-09-07T07:10:27.529Z,14.60
2017-09-07T07:12:56.961Z,14.70
2017-09-07T07:15:25.205Z,14.60
2017-09-07T07:17:53.427Z,14.70
2017-09-07T07:20:21.554Z,14.70
2017-09-07T07:22:51.311Z,14.80
2017-09-07T07:25:19.476Z,14.70
2017-09-07T07:27:47.674Z,14.80
2017-09-07T07:30:15.850Z,14.80
2017-09-07T07:32:44.248Z,14.80
2017-09-07T07:35:12.368Z,14.80
2017-09-07T07:37:40.626Z,14.80
2017-09-07T07:40:08.940Z,14.90
2017-09-07T07:42:37.116Z,14.90
2017-09-07T07:45:05.288Z,14.90
2017-09-07T07:47:33.490Z,15.00
2017-09-07T07:50:01.634Z,15.00
2017-09-07T07:52:29.823Z,15.20
2017-09-07T07:54:58.173Z,15.20
2017-09-07T07:57:26.413Z,15.30
2017-09-07T07:59:55.091Z,15.30
2017-09-07T08:02:24.081Z,15.50
2017-09-07T08:04:52.349Z,15.40
2017-09-07T08:07:20.576Z,15.50
2017-09-07T08:09:48.816Z,15.60
2017-09-07T08:12:16.989Z,15.60
2017-09-07T08:14:45.939Z,15.70
2017-09-07T08:17:14.102Z,15.70
2017-09-07T08:19:42.271Z,15.80
2017-09-07T08:22:10.463Z,15.70
2017-09-07T08:24:38.621Z,15.70
2017-09-07T08:27:06.782Z,15.60
2017-09-07T08:29:34.985Z,15.70
2017-09-07T08:32:03.141Z,15.70
2017-09-07T08:34:32.036Z,15.90
2017-09-07T08:37:00.217Z,15.90
2017-09-07T08:39:28.439Z,16.00
2017-09-07T08:41:56.683Z,16.00
2017-09-07T08:44:25.545Z,16.10
2017-09-07T08:46:54.413Z,16.30
2017-09-07T08:49:23.380Z,16.30
2017-09-07T08:51:51.530Z,16.20
2017-09-07T08:54:23.848Z,16.30
2017-09-07T08:56:52.106Z,16.40
2017-09-07T08:59:21.988Z,16.50
2017-09-07T09:01:50.168Z,16.50
2017-09-07T09:04:18.481Z,16.40
2017-09-07T09:06:46.833Z,16.50
2017-09-07T09:09:15.128Z,16.60
2017-09-07T09:11:43.375Z,16.60
2017-09-07T09:14:11.801Z,16.60
2017-09-07T09:16:39.982Z,16.60
2017-09-07T09:19:08.642Z,16.60
2017-09-07T09:21:37.300Z,16.50
2017-09-07T09:24:05.475Z,16.60
2017-09-07T09:26:33.813Z,16.70
2017-09-07T09:29:02.600Z,16.80
2017-09-07T09:31:30.753Z,16.80
2017-09-07T09:34:00.561Z,16.90
2017-09-07T09:36:28.730Z,17.00
2017-09-07T09:38:56.898Z,17.00
2017-09-07T09:41:25.063Z,17.00
2017-09-07T09:43:54.280Z,17.10
2017-09-07T09:46:23.210Z,17.00
2017-09-07T09:48:51.836Z,17.00
2017-09-07T09:53:54.693Z,17.10
2017-09-07T09:56:22.949Z,17.10
2017-09-07T09:58:51.551Z,17.10
2017-09-07T10:01:19.749Z,17.00
2017-09-07T10:03:47.895Z,17.00
2017-09-07T10:06:16.236Z,17.00
2017-09-07T10:08:45.597Z,16.90
2017-09-07T10:11:13.755Z,17.00
2017-09-07T10:13:41.976Z,17.00
2017-09-07T10:16:10.164Z,17.00
2017-09-07T10:18:38.421Z,17.00
2017-09-07T10:21:06.571Z,17.10
2017-09-07T10:23:35.905Z,17.10
2017-09-07T10:26:04.864Z,17.20
2017-09-07T10:28:33.007Z,17.20
2017-09-07T10:31:02.360Z,17.30
2017-09-07T10:33:31.417Z,17.40
2017-09-07T10:35:59.632Z,17.40
2017-09-07T10:38:28.847Z,17.50
2017-09-07T10:40:56.946Z,17.50
2017-09-07T10:43:25.160Z,17.50
2017-09-07T10:45:53.329Z,17.30
2017-09-07T10:48:21.506Z,17.30
2017-09-07T10:50:49.693Z,17.40
2017-09-07T10:53:17.846Z,17.40
2017-09-07T10:55:45.964Z,17.50
2017-09-07T10:58:14.293Z,17.60
2017-09-07T11:00:42.469Z,17.70
2017-09-07T11:03:12.264Z,17.70
2017-09-07T11:05:41.578Z,17.70
2017-09-07T11:08:09.825Z,17.70
2017-09-07T11:10:38.056Z,17.60
2017-09-07T11:13:06.283Z,17.50
2017-09-07T11:15:34.403Z,17.60
2017-09-07T11:18:02.665Z,17.60
2017-09-07T11:20:30.855Z,17.90
2017-09-07T11:22:59.109Z,17.90
2017-09-07T11:25:27.277Z,17.90
2017-09-07T11:27:55.422Z,17.80
2017-09-07T11:30:23.657Z,17.60
2017-09-07T11:32:51.842Z,17.40
2017-09-07T11:35:20.013Z,17.30
2017-09-07T11:37:48.194Z,17.30
2017-09-07T11:40:17.103Z,17.30
2017-09-07T11:42:46.892Z,17.50
2017-09-07T11:45:16.537Z,17.60
2017-09-07T11:47:44.695Z,17.60
2017-09-07T11:50:12.925Z,17.70
2017-09-07T11:52:41.059Z,17.70
2017-09-07T11:55:09.200Z,17.80
2017-09-07T11:57:37.325Z,17.90
2017-09-07T12:00:05.547Z,17.90
2017-09-07T12:02:34.323Z,18.00
2017-09-07T12:05:03.250Z,17.90
2017-09-07T12:07:32.135Z,17.90
2017-09-07T12:10:00.653Z,17.90
2017-09-07T12:12:28.803Z,18.00
2017-09-07T12:14:56.921Z,18.00
2017-09-07T12:17:25.828Z,18.20
2017-09-07T12:19:53.959Z,18.10
2017-09-07T12:22:22.044Z,18.10
2017-09-07T12:24:50.185Z,18.10
2017-09-07T12:27:18.312Z,18.00
2017-09-07T12:29:46.703Z,18.10
2017-09-07T12:32:15.613Z,18.10
2017-09-07T12:34:43.736Z,18.10
2017-09-07T12:37:12.628Z,18.30
2017-09-07T12:39:40.806Z,18.20
2017-09-07T12:42:08.948Z,18.30
2017-09-07T12:44:37.153Z,18.40
2017-09-07T12:47:06.130Z,18.90
2017-09-07T12:49:35.077Z,19.10
2017-09-07T12:52:03.403Z,19.10
2017-09-07T12:54:31.699Z,19.20
2017-09-07T12:57:00.135Z,19.10
2017-09-07T12:59:29.026Z,19.00
2017-09-07T13:01:57.166Z,18.90
2017-09-07T13:04:25.296Z,19.00
2017-09-07T13:06:54.056Z,18.90
2017-09-07T13:09:22.255Z,18.70
2017-09-07T13:11:50.437Z,18.80
2017-09-07T13:14:19.403Z,18.80
2017-09-07T13:16:48.325Z,18.70
2017-09-07T13:19:16.489Z,18.70
2017-09-07T13:21:45.582Z,18.70
2017-09-07T13:24:13.736Z,18.70
2017-09-07T13:26:41.906Z,18.80
2017-09-07T13:29:10.049Z,19.00
2017-09-07T13:31:38.156Z,19.00
2017-09-07T13:34:06.308Z,19.00
2017-09-07T13:36:34.424Z,19.10
2017-09-07T13:39:03.305Z,18.90
2017-09-07T13:41:32.431Z,18.90
2017-09-07T13:44:01.352Z,18.80
2017-09-07T13:46:29.512Z,18.80
2017-09-07T13:48:57.662Z,18.80
2017-09-07T13:51:25.926Z,18.90
2017-09-07T13:53:54.097Z,19.00
2017-09-07T13:56:23.724Z,19.00
2017-09-07T13:58:52.619Z,19.20
2017-09-07T14:01:20.842Z,19.10
2017-09-07T14:03:48.966Z,19.10
2017-09-07T14:06:17.125Z,19.20
2017-09-07T14:08:45.339Z,19.10
2017-09-07T14:11:14.243Z,19.20
2017-09-07T14:13:42.428Z,19.10
2017-09-07T14:16:10.644Z,19.20
2017-09-07T14:18:38.776Z,19.10
2017-09-07T14:21:06.918Z,19.00
2017-09-07T14:23:35.825Z,19.00
2017-09-07T14:26:04.385Z,18.90
2017-09-07T14:28:32.533Z,18.90
2017-09-07T14:31:00.679Z,18.80
2017-09-07T14:33:28.815Z,18.80
2017-09-07T14:35:57.034Z,18.60
2017-09-07T14:38:25.994Z,18.50
2017-09-07T14:40:54.121Z,18.40
2017-09-07T14:43:22.273Z,18.30
2017-09-07T14:45:50.412Z,18.10
2017-09-07T14:48:19.313Z,17.90
2017-09-07T14:50:48.203Z,17.80
2017-09-07T14:53:16.450Z,17.80
2017-09-07T14:55:44.613Z,17.70
2017-09-07T14:58:12.803Z,17.60
2017-09-07T15:00:40.970Z,17.40
2017-09-07T15:03:09.887Z,17.50
2017-09-07T15:05:37.992Z,17.50
2017-09-07T15:08:06.893Z,17.30
2017-09-07T15:10:35.792Z,17.20
2017-09-07T15:13:03.999Z,17.20
2017-09-07T15:15:32.948Z,17.10
2017-09-07T15:18:01.089Z,17.10
2017-09-07T15:20:29.324Z,17.10
2017-09-07T15:22:57.497Z,17.10
2017-09-07T15:25:25.692Z,17.20
2017-09-07T15:27:53.837Z,17.20
2017-09-07T15:30:22.747Z,17.10
2017-09-07T15:32:50.930Z,17.10
2017-09-07T15:35:19.865Z,17.20
2017-09-07T15:37:48.025Z,17.10
2017-09-07T15:40:16.158Z,17.20
2017-09-07T15:42:44.281Z,17.20
2017-09-07T15:45:12.451Z,17.30
2017-09-07T15:47:40.722Z,17.30
2017-09-07T15:50:08.946Z,17.30
2017-09-07T15:52:37.034Z,17.40
2017-09-07T15:55:05.151Z,17.50
2017-09-07T15:57:33.320Z,17.50
2017-09-07T16:00:01.491Z,17.60
2017-09-07T16:02:29.641Z,17.70
2017-09-07T16:04:57.951Z,17.70
2017-09-07T16:07:26.325Z,17.80
2017-09-07T16:09:55.264Z,17.90
2017-09-07T16:12:23.442Z,17.90
2017-09-07T16:14:51.694Z,18.00
2017-09-07T16:17:19.873Z,18.00
2017-09-07T16:19:48.020Z,18.00
2017-09-07T16:22:16.195Z,18.10
2017-09-07T16:24:44.413Z,17.90
2017-09-07T16:27:12.582Z,18.00
2017-09-07T16:29:41.484Z,18.00
2017-09-07T16:32:09.623Z,18.00
2017-09-07T16:34:38.536Z,17.90
2017-09-07T16:37:06.691Z,17.90
2017-09-07T16:39:34.836Z,17.90
2017-09-07T16:42:02.941Z,18.00
2017-09-07T16:44:31.383Z,17.90
2017-09-07T16:46:59.734Z,17.90
2017-09-07T16:49:27.933Z,17.80
2017-09-07T16:51:57.145Z,17.70
2017-09-07T16:54:25.279Z,17.70
2017-09-07T16:56:53.415Z,17.80
2017-09-07T16:59:22.308Z,17.70
2017-09-07T17:01:50.753Z,17.70
2017-09-07T17:04:19.070Z,17.60
2017-09-07T17:06:47.296Z,17.60
2017-09-07T17:09:16.420Z,17.60
2017-09-07T17:11:44.584Z,17.60
2017-09-07T17:14:12.722Z,17.60
2017-09-07T17:16:40.933Z,17.60
2017-09-07T17:19:09.374Z,17.60
2017-09-07T17:21:38.303Z,17.50
2017-09-07T17:24:07.148Z,17.40
2017-09-07T17:26:35.943Z,17.50
2017-09-07T17:29:04.087Z,17.40
2017-09-07T17:31:32.937Z,17.40
2017-09-07T17:34:01.848Z,17.30
2017-09-07T17:36:30.379Z,17.20
2017-09-07T17:38:58.628Z,17.20
2017-09-07T17:41:27.103Z,17.10
2017-09-07T17:43:55.270Z,17.00
2017-09-07T17:46:24.234Z,17.00
2017-09-07T17:48:52.551Z,17.00
2017-09-07T17:51:20.904Z,17.00
2017-09-07T17:53:49.098Z,17.00
2017-09-07T17:56:17.375Z,16.90
2017-09-07T17:58:46.266Z,16.90
2017-09-07T18:01:14.391Z,16.80
2017-09-07T18:03:42.565Z,16.90
2017-09-07T18:06:11.099Z,16.90
2017-09-07T18:08:39.281Z,16.70
2017-09-07T18:11:07.386Z,16.60
2017-09-07T18:13:35.796Z,16.60
2017-09-07T18:16:06.339Z,16.60
2017-09-07T18:18:34.487Z,16.60
2017-09-07T18:21:02.657Z,16.50
2017-09-07T18:23:30.780Z,16.40
2017-09-07T18:25:59.709Z,16.40
2017-09-07T18:28:28.806Z,16.40
2017-09-07T18:30:57.390Z,16.40
2017-09-07T18:33:25.916Z,16.40
2017-09-07T18:35:54.812Z,16.30
2017-09-07T18:38:26.673Z,16.30
2017-09-07T18:40:57.648Z,16.30
2017-09-07T18:43:26.220Z,16.30
2017-09-07T18:45:54.313Z,16.30
2017-09-07T18:48:23.008Z,16.20
2017-09-07T18:50:51.232Z,16.20
2017-09-07T18:53:20.122Z,16.20
2017-09-07T18:55:48.292Z,16.20
2017-09-07T18:58:16.427Z,16.20
2017-09-07T19:00:44.614Z,16.20
2017-09-07T19:03:12.779Z,16.10
2017-09-07T19:05:41.082Z,16.10
2017-09-07T19:08:09.288Z,16.20
2017-09-07T19:10:38.233Z,16.10
2017-09-07T19:13:06.354Z,16.00
2017-09-07T19:15:34.487Z,16.00
2017-09-07T19:18:02.637Z,15.90
2017-09-07T19:20:30.919Z,15.90
2017-09-07T19:22:59.046Z,15.90
2017-09-07T19:25:27.150Z,15.90
2017-09-07T19:27:56.292Z,15.90
2017-09-07T19:30:24.484Z,15.90
2017-09-07T19:32:53.378Z,15.80
2017-09-07T19:35:21.502Z,15.80
2017-09-07T19:37:49.625Z,15.80
2017-09-07T19:40:17.775Z,15.70
2017-09-07T19:42:46.018Z,15.80
2017-09-07T19:45:14.143Z,15.80
2017-09-07T19:47:42.331Z,15.80
2017-09-07T19:50:11.217Z,15.80
2017-09-07T19:52:39.359Z,15.70
2017-09-07T19:55:07.493Z,15.80
2017-09-07T19:57:36.399Z,15.70
2017-09-07T20:00:04.538Z,15.70
2017-09-07T20:02:32.683Z,15.70
2017-09-07T20:05:01.094Z,15.70
2017-09-07T20:07:30.019Z,15.80
2017-09-07T20:09:58.278Z,15.70
2017-09-07T20:12:26.449Z,15.70
2017-09-07T20:14:55.384Z,15.60
2017-09-07T20:17:23.547Z,15.60
2017-09-07T20:19:51.741Z,15.60
2017-09-07T20:22:20.663Z,15.50
2017-09-07T20:24:48.813Z,15.40
2017-09-07T20:27:16.948Z,15.50
2017-09-07T20:29:45.076Z,15.40
2017-09-07T20:32:13.393Z,15.30
2017-09-07T20:34:41.509Z,15.20
2017-09-07T20:37:10.755Z,15.20
2017-09-07T20:39:38.951Z,15.10
2017-09-07T20:42:07.048Z,15.00
2017-09-07T20:44:35.235Z,14.90
2017-09-07T20:47:03.388Z,14.90
2017-09-07T20:49:32.590Z,14.80
2017-09-07T20:52:00.842Z,14.90
2017-09-07T20:54:29.163Z,14.80
2017-09-07T20:56:58.061Z,14.70
2017-09-07T20:59:26.185Z,14.70
2017-09-07T21:01:55.075Z,14.70
2017-09-07T21:04:23.322Z,14.70
2017-09-07T21:06:52.259Z,14.70
2017-09-07T21:09:20.420Z,14.60
2017-09-07T21:11:48.821Z,14.60
2017-09-07T21:14:17.729Z,14.60
2017-09-07T21:16:46.464Z,14.60
2017-09-07T21:19:14.641Z,14.60
2017-09-07T21:21:42.771Z,14.60
2017-09-07T21:24:10.873Z,14.60
2017-09-07T21:26:39.129Z,14.60
2017-09-07T21:29:07.299Z,14.60
2017-09-07T21:31:36.332Z,14.50
2017-09-07T21:34:04.505Z,14.40
2017-09-07T21:36:33.601Z,14.50
2017-09-07T21:39:02.483Z,14.40
2017-09-07T21:41:31.347Z,14.40
2017-09-07T21:43:59.825Z,14.40
2017-09-07T21:46:28.242Z,14.40
2017-09-07T21:48:56.464Z,14.40
2017-09-07T21:51:25.255Z,14.30
2017-09-07T21:53:54.168Z,14.30
2017-09-07T21:56:22.402Z,14.30
2017-09-07T21:58:52.952Z,14.30
2017-09-07T22:01:22.099Z,14.20
2017-09-07T22:03:51.060Z,14.20
2017-09-07T22:06:20.045Z,14.10
2017-09-07T22:08:48.821Z,14.10
2017-09-07T22:11:17.613Z,14.10
2017-09-07T22:13:45.775Z,14.10
2017-09-07T22:16:13.961Z,14.10
2017-09-07T22:18:42.215Z,14.10
2017-09-07T22:21:10.317Z,14.10
2017-09-07T22:23:38.495Z,14.00
2017-09-07T22:26:06.644Z,14.00
2017-09-07T22:28:36.445Z,14.00
2017-09-07T22:31:04.580Z,14.00
2017-09-07T22:33:33.105Z,14.00
2017-09-07T22:36:01.288Z,14.00
2017-09-07T22:38:29.429Z,14.00
2017-09-07T22:40:58.340Z,14.00
2017-09-07T22:43:27.293Z,14.00
2017-09-07T22:45:56.232Z,14.00
2017-09-07T22:48:24.382Z,13.90
2017-09-07T22:50:52.571Z,14.00
2017-09-07T22:53:21.474Z,13.90
2017-09-07T22:55:49.684Z,13.90
2017-09-07T22:58:18.045Z,14.00
2017-09-07T23:00:46.172Z,14.00
2017-09-07T23:03:14.383Z,14.00
2017-09-07T23:05:42.582Z,14.00
2017-09-07T23:08:11.576Z,14.00
2017-09-07T23:10:39.798Z,14.00
2017-09-07T23:13:08.013Z,14.00
2017-09-07T23:15:36.303Z,14.00
2017-09-07T23:18:05.920Z,14.10
2017-09-07T23:20:34.336Z,14.10
2017-09-07T23:23:02.459Z,14.20
2017-09-07T23:25:30.643Z,14.10
2017-09-07T23:27:58.929Z,14.10
2017-09-07T23:30:27.071Z,14.00
2017-09-07T23:32:56.072Z,14.00
2017-09-07T23:35:24.212Z,13.90
2017-09-07T23:37:52.413Z,14.00
2017-09-07T23:40:20.568Z,14.00
2017-09-07T23:42:48.722Z,14.00
2017-09-07T23:45:16.851Z,14.00
2017-09-07T23:47:45.009Z,14.00
2017-09-07T23:50:13.151Z,14.00
2017-09-07T23:52:41.257Z,14.00
2017-09-07T23:55:09.393Z,14.10
2017-09-07T23:57:39.029Z,14.10
